Time;durP1;ratioP1;P1;durP2;ratioP2;P2;SDS_P1;SDS_P2;PMS_P1;PMS_P2;Temp;Humidity;BMP_temperature;BMP_pressure;BME280_temperature;BME280_humidity;BME280_pressure;Samples;Min_cycle;Max_cycle;Signal;HPM_P1;HPM_P2
2021/03/23 00:01:22;;;;;;;4.43;2.70;;;6.80;99.90;;;;;;4999659;28;20528;-82
2021/03/23 00:03:52;;;;;;;6.07;3.10;;;6.70;99.90;;;;;;5010245;28;20096;-82
2021/03/23 00:06:24;;;;;;;7.45;3.17;;;6.70;99.90;;;;;;4992000;28;20054;-82
2021/03/23 00:09:10;;;;;;;3.97;2.65;;;6.70;99.90;;;;;;5005569;28;20074;-82
2021/03/23 00:11:39;;;;;;;7.13;3.22;;;6.70;99.90;;;;;;4991925;28;20074;-82
2021/03/23 00:14:09;;;;;;;7.45;2.72;;;6.70;99.90;;;;;;4990783;28;20042;-82
2021/03/23 00:16:41;;;;;;;5.97;3.35;;;6.70;99.90;;;;;;4989872;28;20038;-82
2021/03/23 00:19:09;;;;;;;4.82;2.85;;;6.70;99.90;;;;;;4983644;28;20037;-82
2021/03/23 00:21:38;;;;;;;10.90;3.25;;;6.70;99.90;;;;;;5009348;28;20062;-82
2021/03/23 00:24:05;;;;;;;6.35;3.08;;;6.70;99.90;;;;;;4991831;28;20076;-82
2021/03/23 00:26:31;;;;;;;6.38;3.75;;;6.70;99.90;;;;;;4993695;28;21056;-82
2021/03/23 00:28:58;;;;;;;7.78;4.00;;;6.70;99.90;;;;;;4994842;28;20073;-82
2021/03/23 00:31:29;;;;;;;7.45;4.55;;;6.70;99.90;;;;;;4998737;28;20339;-82
2021/03/23 00:33:58;;;;;;;8.25;4.75;;;6.70;99.90;;;;;;4984593;28;20111;-82
2021/03/23 00:36:28;;;;;;;11.57;6.00;;;6.70;99.90;;;;;;4990062;28;20085;-82
2021/03/23 00:38:55;;;;;;;10.23;5.70;;;6.70;99.90;;;;;;4997207;28;20104;-83
2021/03/23 00:41:22;;;;;;;12.98;6.20;;;6.70;99.90;;;;;;4990036;28;20074;-82
2021/03/23 00:43:50;;;;;;;11.52;5.88;;;6.70;99.90;;;;;;4987484;28;20641;-83
2021/03/23 00:46:16;;;;;;;13.05;6.40;;;6.60;99.90;;;;;;4991161;28;20512;-82
2021/03/23 00:48:42;;;;;;;14.27;6.93;;;6.60;99.90;;;;;;4994354;28;20053;-82
2021/03/23 00:51:09;;;;;;;12.57;7.35;;;6.60;99.90;;;;;;4990509;28;20165;-82
2021/03/23 00:53:35;;;;;;;12.40;7.15;;;6.50;99.90;;;;;;5008427;28;20477;-82
2021/03/23 00:56:02;;;;;;;18.63;6.68;;;6.40;99.90;;;;;;4990875;28;20049;-82
2021/03/23 00:58:28;;;;;;;13.45;7.25;;;6.30;99.90;;;;;;5006676;28;20113;-83
2021/03/23 01:00:55;;;;;;;15.65;7.80;;;6.20;99.90;;;;;;5005887;28;20452;-82
2021/03/23 01:03:21;;;;;;;12.90;6.50;;;6.10;99.90;;;;;;5006543;28;20041;-82
2021/03/23 01:05:50;;;;;;;17.70;7.55;;;6.00;99.90;;;;;;5006240;28;20042;-82
2021/03/23 01:08:17;;;;;;;11.90;7.55;;;5.90;99.90;;;;;;5012961;28;20046;-82
2021/03/23 01:10:44;;;;;;;12.38;6.72;;;5.90;99.90;;;;;;4985751;28;20026;-82
2021/03/23 01:13:10;;;;;;;10.48;6.82;;;5.80;99.90;;;;;;4983976;28;20050;-81
2021/03/23 01:15:37;;;;;;;12.38;7.05;;;5.70;99.90;;;;;;4989633;28;20132;-82
2021/03/23 01:18:04;;;;;;;11.00;7.18;;;5.60;99.90;;;;;;5008848;28;20193;-81
2021/03/23 01:20:32;;;;;;;12.55;7.10;;;5.60;99.90;;;;;;4989111;28;20444;-82
2021/03/23 01:22:59;;;;;;;15.13;7.28;;;5.50;99.90;;;;;;4989838;28;20505;-81
2021/03/23 01:25:26;;;;;;;12.23;7.38;;;5.50;99.90;;;;;;5006562;28;20081;-82
2021/03/23 01:27:53;;;;;;;16.52;7.50;;;5.40;99.90;;;;;;5005851;28;20080;-81
2021/03/23 01:30:23;;;;;;;13.45;6.75;;;5.40;99.90;;;;;;4990001;28;20057;-81
2021/03/23 01:32:50;;;;;;;12.73;7.00;;;5.30;99.90;;;;;;4985591;28;20153;-81
2021/03/23 01:35:19;;;;;;;14.65;7.53;;;5.20;99.90;;;;;;5005933;28;20057;-81
2021/03/23 01:37:45;;;;;;;15.57;7.65;;;5.20;99.90;;;;;;4990450;28;20109;-82
2021/03/23 01:40:18;;;;;;;13.70;6.20;;;5.10;99.90;;;;;;5008670;28;20479;-82
2021/03/23 01:42:49;;;;;;;15.63;7.72;;;5.00;99.90;;;;;;4996220;28;20054;-81
2021/03/23 01:45:15;;;;;;;12.07;7.03;;;5.00;99.90;;;;;;4996975;28;20061;-81
2021/03/23 01:47:42;;;;;;;13.48;6.65;;;4.90;99.90;;;;;;5008129;28;20069;-81
2021/03/23 01:50:08;;;;;;;10.90;7.13;;;4.90;99.90;;;;;;5004001;28;20104;-81
2021/03/23 01:52:35;;;;;;;16.50;7.35;;;4.80;99.90;;;;;;4990695;28;20249;-82
2021/03/23 01:55:05;;;;;;;12.27;6.72;;;4.80;99.90;;;;;;4995138;28;20509;-81
2021/03/23 01:57:35;;;;;;;14.45;7.10;;;4.80;99.90;;;;;;4988948;28;20065;-81
2021/03/23 02:00:09;;;;;;;11.27;6.60;;;4.90;99.90;;;;;;4994019;28;20497;-82
2021/03/23 02:02:36;;;;;;;14.82;6.80;;;4.90;99.90;;;;;;4990430;28;20054;-81
2021/03/23 02:05:16;;;;;;;10.82;7.00;;;5.00;99.90;;;;;;4987825;28;20072;-81
2021/03/23 02:07:43;;;;;;;12.18;6.72;;;5.10;99.90;;;;;;4987303;28;20065;-81
2021/03/23 02:10:09;;;;;;;10.80;6.25;;;5.10;99.90;;;;;;5007264;28;20066;-81
2021/03/23 02:12:36;;;;;;;11.23;6.53;;;5.20;99.90;;;;;;4984544;28;20065;-81
2021/03/23 02:15:03;;;;;;;10.35;6.38;;;5.20;99.90;;;;;;5004838;28;20176;-81
2021/03/23 02:17:36;;;;;;;12.75;6.70;;;5.30;99.90;;;;;;5006272;28;20113;-81
2021/03/23 02:20:11;;;;;;;10.27;6.43;;;5.40;99.90;;;;;;4996310;28;20140;-80
2021/03/23 02:22:46;;;;;;;11.10;6.82;;;5.40;99.90;;;;;;4990585;28;20049;-81
2021/03/23 02:25:21;;;;;;;13.00;7.70;;;5.40;99.90;;;;;;5007497;28;20555;-82
2021/03/23 02:27:48;;;;;;;11.05;7.03;;;5.50;99.90;;;;;;4983537;28;20070;-82
2021/03/23 02:30:24;;;;;;;12.95;6.80;;;5.50;99.90;;;;;;4994417;28;20154;-81
2021/03/23 02:32:50;;;;;;;10.32;6.80;;;5.60;99.90;;;;;;4989615;28;20157;-82
2021/03/23 02:35:32;;;;;;;11.90;6.57;;;5.60;99.90;;;;;;4995436;28;20050;-82
2021/03/23 02:38:00;;;;;;;11.45;6.60;;;5.70;99.90;;;;;;4985905;28;20160;-82
2021/03/23 02:40:28;;;;;;;15.20;6.78;;;5.70;99.90;;;;;;4997570;28;20053;-82
2021/03/23 02:42:54;;;;;;;14.60;7.57;;;5.70;99.90;;;;;;5000670;28;20136;-81
2021/03/23 02:45:21;;;;;;;20.48;8.82;;;5.70;99.90;;;;;;4999894;28;20073;-81
2021/03/23 02:47:47;;;;;;;12.40;7.57;;;5.80;99.90;;;;;;4992448;28;20085;-82
2021/03/23 02:50:15;;;;;;;15.57;7.00;;;5.80;99.90;;;;;;4992495;28;20052;-82
2021/03/23 02:52:41;;;;;;;13.50;6.57;;;5.80;99.90;;;;;;4991006;28;20132;-81
2021/03/23 02:55:09;;;;;;;13.73;7.53;;;5.80;99.90;;;;;;4995883;28;20150;-82
2021/03/23 02:57:35;;;;;;;13.57;7.30;;;5.80;99.90;;;;;;5007629;28;20054;-82
2021/03/23 03:00:03;;;;;;;15.98;6.85;;;5.80;99.90;;;;;;4991671;28;20056;-81
2021/03/23 03:02:30;;;;;;;15.00;7.03;;;5.80;99.90;;;;;;5008229;28;20057;-81
2021/03/23 03:04:56;;;;;;;13.90;6.68;;;5.80;99.90;;;;;;5009542;28;20045;-82
2021/03/23 03:07:22;;;;;;;16.58;7.47;;;5.80;99.90;;;;;;5009276;28;20046;-81
2021/03/23 03:09:48;;;;;;;15.20;6.95;;;5.80;99.90;;;;;;5006505;28;20128;-82
2021/03/23 03:12:15;;;;;;;10.73;6.43;;;5.80;99.90;;;;;;4993132;28;20050;-82
2021/03/23 03:14:41;;;;;;;13.05;6.50;;;5.80;99.90;;;;;;4991205;28;20051;-82
2021/03/23 03:17:07;;;;;;;11.35;5.97;;;5.80;99.90;;;;;;4999743;28;20141;-82
2021/03/23 03:19:34;;;;;;;15.10;6.47;;;5.80;99.90;;;;;;4992983;28;20062;-82
2021/03/23 03:22:00;;;;;;;14.80;7.15;;;5.80;99.90;;;;;;4999625;28;20096;-82
2021/03/23 03:24:26;;;;;;;11.27;6.05;;;5.70;99.90;;;;;;4979878;28;20159;-82
2021/03/23 03:26:52;;;;;;;17.50;6.72;;;5.70;99.90;;;;;;5003106;28;20470;-82
2021/03/23 03:29:19;;;;;;;14.60;6.47;;;5.70;99.90;;;;;;4990628;28;20140;-81
2021/03/23 03:31:45;;;;;;;14.45;6.68;;;5.70;99.90;;;;;;5008206;28;20057;-82
2021/03/23 03:34:11;;;;;;;14.30;6.45;;;5.60;99.90;;;;;;5000697;28;20114;-82
2021/03/23 03:36:37;;;;;;;16.92;7.13;;;5.60;99.90;;;;;;4992788;28;20131;-82
2021/03/23 03:39:05;;;;;;;15.93;6.60;;;5.50;99.90;;;;;;5010198;28;20480;-82
2021/03/23 03:41:32;;;;;;;14.00;6.50;;;5.50;99.90;;;;;;5010664;28;20477;-82
2021/03/23 03:43:59;;;;;;;16.40;6.10;;;5.50;99.90;;;;;;5010629;28;20054;-82
2021/03/23 03:46:25;;;;;;;17.90;6.78;;;5.50;99.90;;;;;;4999126;28;20076;-82
2021/03/23 03:48:51;;;;;;;14.98;7.30;;;5.50;99.90;;;;;;5009503;28;20512;-82
2021/03/23 03:51:18;;;;;;;12.18;6.82;;;5.40;99.90;;;;;;5006449;28;20053;-82
2021/03/23 03:53:44;;;;;;;13.57;6.65;;;5.40;99.90;;;;;;5005569;28;20056;-82
2021/03/23 03:56:10;;;;;;;15.30;6.78;;;5.40;99.90;;;;;;5008647;28;20139;-82
2021/03/23 03:58:37;;;;;;;16.00;7.32;;;5.40;99.90;;;;;;4990578;28;20066;-82
2021/03/23 04:01:03;;;;;;;16.52;7.10;;;5.40;99.90;;;;;;4996735;28;20050;-82
2021/03/23 04:03:31;;;;;;;16.50;6.93;;;5.40;99.90;;;;;;5008732;28;20076;-82
2021/03/23 04:05:59;;;;;;;14.50;7.35;;;5.50;99.90;;;;;;4985679;28;20050;-82
2021/03/23 04:08:31;;;;;;;16.55;6.65;;;5.50;99.90;;;;;;4996030;28;20050;-82
2021/03/23 04:11:01;;;;;;;14.32;6.82;;;5.50;99.90;;;;;;5013663;28;20092;-82
2021/03/23 04:13:27;;;;;;;14.60;6.72;;;5.60;99.90;;;;;;5009356;28;20651;-81
2021/03/23 04:15:54;;;;;;;12.90;7.32;;;5.60;99.90;;;;;;4991921;28;20062;-82
2021/03/23 04:18:23;;;;;;;14.88;7.07;;;5.60;99.90;;;;;;4996989;28;20057;-81
2021/03/23 04:20:52;;;;;;;23.90;7.32;;;5.60;99.90;;;;;;4992048;28;20089;-81
2021/03/23 04:23:27;;;;;;;16.20;7.93;;;5.70;99.90;;;;;;4997278;28;20568;-81
2021/03/23 04:25:54;;;;;;;20.83;8.63;;;5.70;99.90;;;;;;5007064;28;20077;-81
2021/03/23 04:28:21;;;;;;;19.33;7.82;;;5.70;99.90;;;;;;5005699;28;20085;-81
2021/03/23 04:30:48;;;;;;;13.65;7.93;;;5.70;99.90;;;;;;4995154;28;20054;-81
2021/03/23 04:33:15;;;;;;;16.13;8.15;;;5.70;99.90;;;;;;5006832;28;20053;-81
2021/03/23 04:35:52;;;;;;;25.48;8.88;;;5.70;99.90;;;;;;4998408;28;20114;-81
2021/03/23 04:38:22;;;;;;;14.88;7.97;;;5.70;99.90;;;;;;4989302;28;20057;-81
2021/03/23 04:40:49;;;;;;;14.93;9.00;;;5.70;99.90;;;;;;4997474;28;20081;-81
2021/03/23 04:43:19;;;;;;;19.27;9.35;;;5.70;99.90;;;;;;5006022;28;20049;-81
2021/03/23 04:45:45;;;;;;;16.60;7.95;;;5.60;99.90;;;;;;4989693;28;20054;-81
2021/03/23 04:48:12;;;;;;;23.08;9.15;;;5.60;99.90;;;;;;4968838;28;20153;-81
2021/03/23 04:50:38;;;;;;;16.17;9.00;;;5.60;99.90;;;;;;4994994;28;20156;-81
2021/03/23 04:53:04;;;;;;;18.55;8.75;;;5.60;99.90;;;;;;4988852;28;20112;-81
2021/03/23 04:55:30;;;;;;;23.10;9.85;;;5.60;99.90;;;;;;4988615;28;20469;-81
2021/03/23 04:57:57;;;;;;;22.77;9.70;;;5.60;99.90;;;;;;5005709;28;20045;-81
2021/03/23 05:00:23;;;;;;;20.58;10.30;;;5.60;99.90;;;;;;5004541;28;20064;-81
2021/03/23 05:02:50;;;;;;;22.35;9.98;;;5.60;99.90;;;;;;4994448;28;20170;-81
2021/03/23 05:05:16;;;;;;;21.45;10.50;;;5.60;99.90;;;;;;4990202;28;20054;-81
2021/03/23 05:07:43;;;;;;;29.73;12.90;;;5.60;99.90;;;;;;5007648;28;20101;-81
2021/03/23 05:10:11;;;;;;;28.33;11.80;;;5.60;99.90;;;;;;4996358;28;20120;-81
2021/03/23 05:12:38;;;;;;;24.23;11.00;;;5.60;99.90;;;;;;4999234;28;20065;-80
2021/03/23 05:15:06;;;;;;;29.88;11.77;;;5.60;99.90;;;;;;4986985;28;20053;-82
2021/03/23 05:17:33;;;;;;;24.75;11.98;;;5.60;99.90;;;;;;5005606;28;20527;-81
2021/03/23 05:19:59;;;;;;;22.00;12.18;;;5.60;99.90;;;;;;4991943;28;20044;-82
2021/03/23 05:22:25;;;;;;;22.10;12.77;;;5.60;99.90;;;;;;5010995;28;20030;-82
2021/03/23 05:24:51;;;;;;;24.90;12.13;;;5.60;99.90;;;;;;4995936;28;20054;-82
2021/03/23 05:27:18;;;;;;;25.35;11.70;;;5.60;99.90;;;;;;5022117;28;20053;-85
2021/03/23 05:29:44;;;;;;;24.40;12.05;;;5.50;99.90;;;;;;5010228;28;20058;-81
2021/03/23 05:32:11;;;;;;;23.83;12.10;;;5.50;99.90;;;;;;5023162;28;20029;-82
2021/03/23 05:34:37;;;;;;;34.65;14.48;;;5.50;99.90;;;;;;5006766;28;20236;-81
2021/03/23 05:37:03;;;;;;;30.60;14.20;;;5.40;99.90;;;;;;5022844;28;20060;-81
2021/03/23 05:39:30;;;;;;;31.63;13.80;;;5.30;99.90;;;;;;5006335;28;20050;-82
2021/03/23 05:42:14;;;;;;;24.92;13.45;;;5.20;99.90;;;;;;4995095;28;20501;-80
2021/03/23 05:45:04;;;;;;;28.25;13.57;;;5.10;99.90;;;;;;4993454;28;20101;-81
2021/03/23 05:47:38;;;;;;;27.95;15.02;;;5.10;99.90;;;;;;4988716;28;20056;-82
2021/03/23 05:50:10;;;;;;;;;;;5.00;99.90;;;;;;5008343;28;20125;-84
2021/03/23 05:52:49;;;;;;;28.95;13.63;;;4.90;99.90;;;;;;5012404;28;20028;-82
2021/03/23 05:55:31;;;;;;;31.88;14.70;;;4.90;99.90;;;;;;5014036;28;20049;-82
2021/03/23 05:57:59;;;;;;;35.95;16.90;;;4.80;99.90;;;;;;4989974;28;20141;-82
2021/03/23 06:00:32;;;;;;;33.78;15.90;;;4.80;99.90;;;;;;5010770;28;20053;-82
2021/03/23 06:03:09;;;;;;;32.10;16.58;;;4.90;99.90;;;;;;4989001;28;20077;-82
2021/03/23 06:05:53;;;;;;;30.98;14.50;;;4.90;99.90;;;;;;4982140;28;20572;-82
2021/03/23 06:08:32;;;;;;;36.22;18.08;;;5.00;99.90;;;;;;5006502;28;20102;-81
2021/03/23 06:11:38;;;;;;;33.22;16.77;;;5.10;99.90;;;;;;5007495;28;20041;-82
2021/03/23 06:14:29;;;;;;;31.35;14.50;;;5.20;99.90;;;;;;4974097;28;20144;-81
2021/03/23 06:17:05;;;;;;;31.48;15.63;;;5.30;99.90;;;;;;4985403;28;20537;-82
2021/03/23 06:19:51;;;;;;;38.33;16.88;;;5.30;99.90;;;;;;5006040;28;20490;-82
2021/03/23 06:22:32;;;;;;;32.50;16.08;;;5.40;99.90;;;;;;4992853;28;20652;-83
2021/03/23 06:25:03;;;;;;;29.27;15.25;;;5.50;99.90;;;;;;4996190;28;20048;-81
2021/03/23 06:27:52;;;;;;;27.65;16.23;;;5.50;99.90;;;;;;4992803;28;20046;-81
2021/03/23 06:30:39;;;;;;;34.05;14.80;;;5.60;99.90;;;;;;4988663;28;20046;-81
2021/03/23 06:33:11;;;;;;;36.33;16.58;;;5.60;99.90;;;;;;4991120;28;20050;-81
2021/03/23 06:35:44;;;;;;;30.13;15.52;;;5.70;99.90;;;;;;5003497;28;20494;-81
2021/03/23 06:38:40;;;;;;;30.60;16.88;;;5.80;99.90;;;;;;4997764;28;20141;-82
2021/03/23 06:41:06;;;;;;;33.88;15.20;;;5.90;99.90;;;;;;4993820;28;20480;-82
2021/03/23 06:43:34;;;;;;;36.17;16.35;;;5.90;99.90;;;;;;4996901;28;20561;-81
2021/03/23 06:46:31;;;;;;;34.13;15.63;;;6.00;99.90;;;;;;5003810;28;20050;-82
2021/03/23 06:49:18;;;;;;;30.73;16.65;;;6.10;99.90;;;;;;4975526;28;20061;-81
2021/03/23 06:51:53;;;;;;;34.88;16.98;;;6.10;99.90;;;;;;4986139;28;20058;-81
2021/03/23 06:54:24;;;;;;;32.22;16.17;;;6.20;99.90;;;;;;4989990;28;20081;-81
2021/03/23 06:57:15;;;;;;;33.50;18.25;;;6.30;99.90;;;;;;5005451;28;20038;-81
2021/03/23 07:00:25;;;;;;;35.80;17.92;;;6.30;99.90;;;;;;4977658;28;20537;-81
2021/03/23 07:03:08;;;;;;;35.35;18.40;;;6.40;99.90;;;;;;4951200;28;20050;-80
2021/03/23 07:05:37;;;;;;;38.92;17.08;;;6.50;99.90;;;;;;4968820;28;20067;-80
2021/03/23 07:08:10;;;;;;;41.08;19.35;;;6.60;99.90;;;;;;4983138;28;20130;-81
2021/03/23 07:10:42;;;;;;;40.28;19.90;;;6.70;99.90;;;;;;4966277;28;20109;-80
2021/03/23 07:13:28;;;;;;;35.95;19.17;;;6.80;99.90;;;;;;4980582;28;20101;-83
2021/03/23 07:16:29;;;;;;;41.30;18.83;;;6.90;99.90;;;;;;4960506;28;20047;-81
2021/03/23 07:19:08;;;;;;;42.45;19.60;;;7.00;99.90;;;;;;4962187;28;20042;-81
2021/03/23 07:21:48;;;;;;;38.22;19.60;;;7.10;99.90;;;;;;4962856;28;20050;-80
2021/03/23 07:24:18;;;;;;;40.70;21.05;;;7.20;99.90;;;;;;4963288;28;20129;-80
2021/03/23 07:26:58;;;;;;;35.30;19.55;;;7.30;99.90;;;;;;4962813;28;20474;-81
2021/03/23 07:29:30;;;;;;;43.00;20.13;;;7.40;99.90;;;;;;4967902;28;20121;-80
2021/03/23 07:32:12;;;;;;;40.67;20.73;;;7.50;99.90;;;;;;4969065;28;20070;-80
2021/03/23 07:35:03;;;;;;;51.55;21.63;;;7.50;99.90;;;;;;4971585;28;20050;-81
2021/03/23 07:37:45;;;;;;;44.97;21.65;;;7.60;99.90;;;;;;4936006;28;20042;-81
2021/03/23 07:40:40;;;;;;;43.58;22.73;;;7.60;99.90;;;;;;4967646;28;20062;-81
2021/03/23 07:43:36;;;;;;;43.72;20.73;;;7.80;99.90;;;;;;4965977;28;20534;-81
2021/03/23 07:46:16;;;;;;;45.50;23.13;;;8.00;99.90;;;;;;4975751;28;20055;-78
2021/03/23 07:48:57;;;;;;;52.95;24.70;;;8.10;99.90;;;;;;4959483;28;20053;-79
2021/03/23 07:51:39;;;;;;;58.70;25.23;;;8.10;99.90;;;;;;4958928;28;20493;-79
2021/03/23 07:54:19;;;;;;;51.47;25.60;;;8.00;99.90;;;;;;4964927;28;20057;-78
2021/03/23 07:56:56;;;;;;;60.50;27.83;;;8.00;99.90;;;;;;4965579;28;20054;-79
2021/03/23 07:59:50;;;;;;;60.38;27.20;;;8.10;99.90;;;;;;4982905;28;20046;-78
2021/03/23 08:02:46;;;;;;;54.30;26.85;;;8.10;99.90;;;;;;4968080;28;20045;-78
2021/03/23 08:05:22;;;;;;;67.20;30.42;;;8.20;99.90;;;;;;4966129;28;20490;-78
2021/03/23 08:07:57;;;;;;;75.00;32.00;;;8.30;99.90;;;;;;4964278;28;20042;-78
2021/03/23 08:10:34;;;;;;;72.38;30.98;;;8.30;99.90;;;;;;4967368;28;20053;-78
2021/03/23 08:13:22;;;;;;;78.10;32.30;;;8.30;99.90;;;;;;4974538;28;20514;-79
2021/03/23 08:16:19;;;;;;;65.75;29.98;;;8.40;99.90;;;;;;4968867;28;20047;-80
2021/03/23 08:19:23;;;;;;;70.55;30.67;;;8.40;99.90;;;;;;4982819;28;20062;-79
2021/03/23 08:22:31;;;;;;;70.60;30.92;;;8.50;99.90;;;;;;4963578;28;20055;-79
2021/03/23 08:25:16;;;;;;;66.38;29.98;;;8.40;99.90;;;;;;4976428;28;20073;-79
2021/03/23 08:28:13;;;;;;;66.38;28.55;;;8.40;99.90;;;;;;4966388;28;20070;-79
2021/03/23 08:31:10;;;;;;;64.80;28.77;;;8.30;99.90;;;;;;4966750;28;20133;-79
2021/03/23 08:33:45;;;;;;;65.45;30.08;;;8.40;99.90;;;;;;4980391;28;20101;-79
2021/03/23 08:36:50;;;;;;;68.65;31.42;;;8.50;99.90;;;;;;4982080;28;20051;-79
2021/03/23 08:40:01;;;;;;;72.68;32.15;;;8.50;99.90;;;;;;4965721;28;20523;-82
2021/03/23 08:42:28;;;;;;;64.82;29.65;;;8.50;99.90;;;;;;4918416;29;20063;-80
2021/03/23 08:45:01;;;;;;;67.22;31.02;;;8.50;99.90;;;;;;4936421;29;20142;-80
2021/03/23 08:47:45;;;;;;;64.72;30.75;;;8.60;99.90;;;;;;4954034;28;20062;-80
2021/03/23 08:50:20;;;;;;;68.35;30.20;;;8.60;99.90;;;;;;4950574;28;20077;-79
2021/03/23 08:52:49;;;;;;;69.30;31.48;;;8.70;99.90;;;;;;4962328;28;20105;-80
2021/03/23 08:55:42;;;;;;;71.85;32.40;;;8.70;99.90;;;;;;4972039;28;20056;-81
2021/03/23 08:58:13;;;;;;;64.07;29.73;;;8.70;99.90;;;;;;4953616;28;20138;-80
2021/03/23 09:00:44;;;;;;;63.70;29.08;;;8.70;99.90;;;;;;4992916;28;20350;-80
2021/03/23 09:03:10;;;;;;;65.97;30.83;;;8.80;99.90;;;;;;4984750;28;20055;-82
2021/03/23 09:05:52;;;;;;;59.47;29.98;;;8.90;99.90;;;;;;4988036;28;20073;-80
2021/03/23 09:08:27;;;;;;;63.45;28.85;;;9.10;99.90;;;;;;4984377;28;20141;-81
2021/03/23 09:11:07;;;;;;;61.00;29.13;;;9.30;99.90;;;;;;4975407;28;20090;-81
2021/03/23 09:13:33;;;;;;;62.35;30.02;;;9.40;99.90;;;;;;4986916;28;20054;-81
2021/03/23 09:16:02;;;;;;;68.75;31.80;;;9.50;99.90;;;;;;4981092;28;20042;-81
2021/03/23 09:18:33;;;;;;;62.25;29.33;;;9.60;99.90;;;;;;4986918;28;20050;-81
2021/03/23 09:21:04;;;;;;;71.28;31.65;;;9.80;99.90;;;;;;4990978;28;20098;-81
2021/03/23 09:23:39;;;;;;;68.95;32.05;;;9.90;99.90;;;;;;4993231;28;20046;-81
2021/03/23 09:26:24;;;;;;;67.35;29.98;;;10.10;99.90;;;;;;5002408;28;20073;-82
2021/03/23 09:28:52;;;;;;;71.50;31.42;;;10.20;99.90;;;;;;5008839;28;20077;-81
2021/03/23 09:31:24;;;;;;;69.05;30.98;;;10.40;99.90;;;;;;4994049;28;20050;-81
2021/03/23 09:33:58;;;;;;;64.28;31.92;;;10.50;99.90;;;;;;4986236;28;20060;-81
2021/03/23 09:36:50;;;;;;;63.53;30.30;;;10.70;99.90;;;;;;4992742;28;20050;-80
2021/03/23 09:39:16;;;;;;;61.38;30.90;;;11.00;99.90;;;;;;4991248;28;20038;-80
2021/03/23 09:42:22;;;;;;;56.10;28.80;;;11.10;99.90;;;;;;4985354;28;20085;-81
2021/03/23 09:45:23;;;;;;;63.17;29.50;;;11.30;99.90;;;;;;4972298;28;20050;-81
2021/03/23 09:48:03;;;;;;;62.33;29.55;;;11.20;99.90;;;;;;4957843;28;20056;-80
2021/03/23 09:50:35;;;;;;;62.60;28.15;;;11.10;99.90;;;;;;4964302;28;20050;-79
2021/03/23 09:53:15;;;;;;;60.38;29.02;;;10.90;99.90;;;;;;4986814;28;20061;-79
2021/03/23 09:55:41;;;;;;;53.20;27.25;;;10.70;99.90;;;;;;4964711;28;20054;-80
2021/03/23 09:58:26;;;;;;;56.67;28.15;;;10.70;99.90;;;;;;4984559;28;20691;-80
2021/03/23 10:00:53;;;;;;;56.65;28.02;;;10.50;99.90;;;;;;4970271;28;20059;-79
2021/03/23 10:03:38;;;;;;;55.97;27.90;;;10.50;99.90;;;;;;4982758;28;20047;-80
2021/03/23 10:06:18;;;;;;;55.58;26.73;;;10.60;99.90;;;;;;4977338;28;20080;-80
2021/03/23 10:08:55;;;;;;;59.15;29.13;;;10.60;99.90;;;;;;4963245;28;20047;-80
2021/03/23 10:11:22;;;;;;;58.25;28.70;;;10.50;99.90;;;;;;4960607;28;20066;-80
2021/03/23 10:13:55;;;;;;;56.28;28.55;;;10.30;99.90;;;;;;4968117;28;20151;-79
2021/03/23 10:16:31;;;;;;;58.55;28.67;;;10.10;99.90;;;;;;4973158;28;20051;-79
2021/03/23 10:19:20;;;;;;;57.30;26.70;;;9.90;99.90;;;;;;4981146;28;20059;-79
2021/03/23 10:22:09;;;;;;;48.58;23.75;;;9.80;99.90;;;;;;4959483;28;20564;-78
2021/03/23 10:24:39;;;;;;;47.60;25.48;;;9.80;99.90;;;;;;4966601;28;20498;-78
2021/03/23 10:27:31;;;;;;;55.92;25.52;;;9.90;99.90;;;;;;4967671;28;20054;-79
2021/03/23 10:30:07;;;;;;;48.03;23.60;;;9.90;99.90;;;;;;4966184;28;20094;-80
2021/03/23 10:32:46;;;;;;;41.58;21.77;;;10.00;99.90;;;;;;4964944;28;20474;-81
2021/03/23 10:35:19;;;;;;;45.03;22.58;;;10.10;99.90;;;;;;4955105;28;20059;-79
2021/03/23 10:37:45;;;;;;;46.95;23.77;;;10.20;99.90;;;;;;4981733;28;20569;-80
2021/03/23 10:40:36;;;;;;;50.92;24.63;;;10.30;99.90;;;;;;4945068;28;20420;-82
2021/03/23 10:43:03;;;;;;;50.83;26.10;;;10.40;99.90;;;;;;4978456;28;20388;-80
2021/03/23 10:45:43;;;;;;;51.15;25.50;;;10.40;99.90;;;;;;4967493;28;20074;-81
2021/03/23 10:48:24;;;;;;;50.80;25.85;;;10.40;99.90;;;;;;4963598;28;20050;-80
2021/03/23 10:51:11;;;;;;;55.03;27.92;;;10.40;99.90;;;;;;4969617;28;20509;-80
2021/03/23 10:53:37;;;;;;;54.13;28.10;;;10.40;99.90;;;;;;4965712;28;20047;-80
2021/03/23 10:56:20;;;;;;;55.65;26.70;;;10.50;99.90;;;;;;4966390;28;20055;-80
2021/03/23 10:59:12;;;;;;;53.92;26.25;;;10.50;99.90;;;;;;4984536;28;20055;-80
2021/03/23 11:01:57;;;;;;;55.00;28.42;;;10.60;99.90;;;;;;4999662;28;20127;-80
2021/03/23 11:04:24;;;;;;;56.60;28.13;;;10.50;99.90;;;;;;4992369;28;20467;-80
2021/03/23 11:06:51;;;;;;;56.47;27.75;;;10.60;99.90;;;;;;5004327;28;20049;-80
2021/03/23 11:09:19;;;;;;;51.80;25.65;;;10.70;99.90;;;;;;4992499;28;20049;-79
2021/03/23 11:11:58;;;;;;;48.20;26.83;;;11.00;99.90;;;;;;5008707;28;20057;-80
2021/03/23 11:14:24;;;;;;;56.88;27.55;;;11.20;99.90;;;;;;4998712;28;20122;-80
2021/03/23 11:16:54;;;;;;;52.38;27.40;;;11.60;99.90;;;;;;4997836;28;20045;-80
2021/03/23 11:19:33;;;;;;;57.42;28.38;;;11.80;99.90;;;;;;5000177;28;20045;-79
2021/03/23 11:22:04;;;;;;;53.35;26.52;;;11.90;99.90;;;;;;4987731;28;20119;-80
2021/03/23 11:24:32;;;;;;;65.55;27.48;;;12.00;99.90;;;;;;5008182;28;20054;-80
2021/03/23 11:27:00;;;;;;;49.35;25.73;;;12.10;99.90;;;;;;5000018;28;20110;-80
2021/03/23 11:29:26;;;;;;;52.58;25.95;;;12.40;99.90;;;;;;4990183;28;20120;-80
2021/03/23 11:31:53;;;;;;;50.47;25.98;;;12.80;99.90;;;;;;4985352;28;20068;-80
2021/03/23 11:34:22;;;;;;;52.22;26.42;;;13.20;99.90;;;;;;4992016;28;20084;-80
2021/03/23 11:36:50;;;;;;;45.60;24.98;;;13.30;99.90;;;;;;5000034;28;20108;-81
2021/03/23 11:39:17;;;;;;;43.47;24.35;;;13.50;99.90;;;;;;4988370;28;20065;-82
2021/03/23 11:41:50;;;;;;;45.63;26.27;;;13.70;99.90;;;;;;4990329;28;20076;-81
2021/03/23 11:44:20;;;;;;;49.05;25.60;;;14.00;99.90;;;;;;4998539;28;20087;-81
2021/03/23 11:46:57;;;;;;;42.85;24.65;;;14.30;99.90;;;;;;4978310;28;20050;-81
2021/03/23 11:49:57;;;;;;;45.20;25.90;;;14.20;99.90;;;;;;4991718;28;20057;-83
2021/03/23 11:52:25;;;;;;;47.58;27.83;;;14.10;99.90;;;;;;4983984;28;20050;-81
2021/03/23 11:54:51;;;;;;;54.42;26.85;;;14.20;99.90;;;;;;5009913;28;20053;-81
2021/03/23 11:57:18;;;;;;;45.28;26.05;;;14.40;99.90;;;;;;4991526;28;20634;-81
2021/03/23 11:59:45;;;;;;;45.55;27.30;;;14.50;99.90;;;;;;4969386;28;20490;-82
2021/03/23 12:02:12;;;;;;;44.72;26.35;;;14.60;99.90;;;;;;4949100;28;20054;-80
2021/03/23 12:04:48;;;;;;;44.55;26.38;;;14.60;98.90;;;;;;4964825;28;20138;-82
2021/03/23 12:07:52;;;;;;;40.63;24.63;;;14.40;99.60;;;;;;4966501;28;20434;-81
2021/03/23 12:10:24;;;;;;;42.88;24.33;;;14.30;99.90;;;;;;4967916;28;20665;-79
2021/03/23 12:13:06;;;;;;;45.90;26.67;;;14.20;99.90;;;;;;4982943;28;20050;-81
2021/03/23 12:15:37;;;;;;;43.60;25.38;;;14.10;99.90;;;;;;4966820;28;20142;-80
2021/03/23 12:18:08;;;;;;;43.33;26.27;;;14.10;99.90;;;;;;4984817;28;20133;-80
2021/03/23 12:20:38;;;;;;;38.70;23.50;;;14.10;99.90;;;;;;4984909;28;20050;-81
2021/03/23 12:23:06;;;;;;;37.13;23.15;;;14.00;99.90;;;;;;4964215;28;20065;-80
2021/03/23 12:25:33;;;;;;;41.08;23.67;;;14.20;99.90;;;;;;4970295;28;20446;-80
2021/03/23 12:27:59;;;;;;;36.58;21.63;;;14.70;99.90;;;;;;4966273;28;20042;-80
2021/03/23 12:30:26;;;;;;;43.13;24.33;;;15.30;97.90;;;;;;4954897;28;20072;-80
2021/03/23 12:32:55;;;;;;;34.42;22.60;;;15.60;95.50;;;;;;4968685;28;20050;-79
2021/03/23 12:35:28;;;;;;;41.78;24.00;;;15.70;91.70;;;;;;4984543;28;20050;-80
2021/03/23 12:37:59;;;;;;;37.60;24.08;;;15.50;92.30;;;;;;4969271;28;20148;-80
2021/03/23 12:40:27;;;;;;;37.80;23.52;;;15.60;93.90;;;;;;4982741;28;20061;-80
2021/03/23 12:43:02;;;;;;;40.85;23.63;;;16.20;91.20;;;;;;4968348;28;20058;-81
2021/03/23 12:45:35;;;;;;;42.63;24.67;;;16.60;89.20;;;;;;4968125;28;20046;-81
2021/03/23 12:48:01;;;;;;;43.42;25.02;;;16.60;87.80;;;;;;4967749;28;20047;-80
2021/03/23 12:50:28;;;;;;;39.85;23.95;;;16.70;86.00;;;;;;4966350;28;20380;-81
2021/03/23 12:52:57;;;;;;;43.30;24.33;;;17.00;84.30;;;;;;4956567;28;20153;-79
2021/03/23 12:55:29;;;;;;;42.35;25.10;;;17.20;80.40;;;;;;4981760;28;20144;-80
2021/03/23 12:57:57;;;;;;;39.40;24.17;;;17.20;83.40;;;;;;4965416;28;20055;-82
2021/03/23 13:00:33;;;;;;;41.28;25.42;;;17.20;78.20;;;;;;4980544;28;20070;-85
2021/03/23 13:03:01;;;;;;;40.65;23.77;;;16.90;78.90;;;;;;4982327;28;20055;-81
2021/03/23 13:05:30;;;;;;;36.40;23.25;;;16.50;78.30;;;;;;4984561;28;20483;-81
2021/03/23 13:08:02;;;;;;;38.25;22.08;;;16.10;79.70;;;;;;4970766;28;20051;-81
2021/03/23 13:10:37;;;;;;;39.67;22.30;;;16.00;83.80;;;;;;4959841;28;20118;-81